createdAt,value
2023-03-28T00:01:52.238Z,21.54
2023-03-28T00:04:24.533Z,21.79
2023-03-28T00:06:57.203Z,21.43
2023-03-28T00:09:31.835Z,20.46
2023-03-28T00:12:03.898Z,20.30
2023-03-28T00:14:38.223Z,19.95
2023-03-28T00:17:10.395Z,19.87
2023-03-28T00:19:43.391Z,21.38
2023-03-28T00:22:16.205Z,21.12
2023-03-28T00:24:52.761Z,22.54
2023-03-28T00:27:24.815Z,22.34
2023-03-28T00:29:56.888Z,20.98
2023-03-28T00:32:29.070Z,21.73
2023-03-28T00:35:01.315Z,20.96
2023-03-28T00:37:34.433Z,20.20
2023-03-28T00:40:11.310Z,20.09
2023-03-28T00:42:46.317Z,19.92
2023-03-28T00:45:21.612Z,20.06
2023-03-28T00:47:59.099Z,20.49
2023-03-28T00:50:36.752Z,22.11
2023-03-28T00:53:15.178Z,22.25
2023-03-28T00:55:53.666Z,21.65
2023-03-28T00:58:30.959Z,20.57
2023-03-28T01:01:04.042Z,21.51
2023-03-28T01:03:41.594Z,20.14
2023-03-28T01:06:17.547Z,21.05
2023-03-28T01:08:52.616Z,22.49
2023-03-28T01:11:29.190Z,19.64
2023-03-28T01:14:05.006Z,19.96
2023-03-28T01:16:42.287Z,21.71
2023-03-28T01:19:30.351Z,21.30
2023-03-28T01:22:37.997Z,20.87
2023-03-28T01:25:38.868Z,20.81
2023-03-28T01:28:27.392Z,21.54
2023-03-28T01:31:35.657Z,20.09
2023-03-28T01:34:43.756Z,20.41
2023-03-28T01:37:34.523Z,21.19
2023-03-28T01:40:29.144Z,18.71
2023-03-28T01:43:18.481Z,19.94
2023-03-28T01:46:00.060Z,21.29
2023-03-28T01:48:44.703Z,21.46
2023-03-28T01:51:29.328Z,21.72
2023-03-28T01:54:16.263Z,21.25
2023-03-28T01:57:00.694Z,22.16
2023-03-28T01:59:40.349Z,20.71
2023-03-28T02:02:21.654Z,21.83
2023-03-28T02:04:57.435Z,22.58
2023-03-28T02:07:31.976Z,20.76
2023-03-28T02:10:11.732Z,20.97
2023-03-28T02:12:50.829Z,21.26
2023-03-28T02:15:27.521Z,21.10
2023-03-28T02:18:04.891Z,21.83
2023-03-28T02:20:41.733Z,21.54
2023-03-28T02:23:20.270Z,21.37
2023-03-28T02:25:55.458Z,20.61
2023-03-28T02:28:29.406Z,21.22
2023-03-28T02:31:01.837Z,21.51
2023-03-28T02:33:39.462Z,22.46
2023-03-28T02:36:25.668Z,23.97
2023-03-28T02:39:19.670Z,22.37
2023-03-28T02:42:26.601Z,23.20
2023-03-28T02:45:22.227Z,21.53
2023-03-28T02:48:09.614Z,21.53
2023-03-28T02:50:53.738Z,22.34
2023-03-28T02:53:36.290Z,20.91
2023-03-28T02:56:15.056Z,23.29
2023-03-28T02:58:56.179Z,22.78
2023-03-28T03:01:29.571Z,21.93
2023-03-28T03:04:02.581Z,22.71
2023-03-28T03:06:35.430Z,23.34
2023-03-28T03:09:08.393Z,23.87
2023-03-28T03:11:40.508Z,24.38
2023-03-28T03:14:15.195Z,23.17
2023-03-28T03:16:49.019Z,26.82
2023-03-28T03:19:21.934Z,26.97
2023-03-28T03:21:54.369Z,24.95
2023-03-28T03:24:26.657Z,27.76
2023-03-28T03:26:58.836Z,27.24
2023-03-28T03:29:38.744Z,26.61
2023-03-28T03:32:11.527Z,26.83
2023-03-28T03:34:44.198Z,27.36
2023-03-28T03:37:18.085Z,27.78
2023-03-28T03:39:50.486Z,27.96
2023-03-28T03:42:23.272Z,30.64
2023-03-28T03:44:58.075Z,32.09
2023-03-28T03:47:30.148Z,27.54
2023-03-28T03:50:02.224Z,26.86
2023-03-28T03:52:34.308Z,27.96
2023-03-28T03:55:06.575Z,29.51
2023-03-28T03:57:38.554Z,27.32
2023-03-28T04:00:14.779Z,28.91
2023-03-28T04:02:47.033Z,27.56
2023-03-28T04:05:19.750Z,30.21
2023-03-28T04:07:51.788Z,30.23
2023-03-28T04:10:23.902Z,30.80
2023-03-28T04:12:56.424Z,31.00
2023-03-28T04:15:32.143Z,32.35
2023-03-28T04:18:06.839Z,30.09
2023-03-28T04:20:40.531Z,30.62
2023-03-28T04:23:13.515Z,29.15
2023-03-28T04:25:45.767Z,28.29
2023-03-28T04:28:17.829Z,30.32
2023-03-28T04:30:53.516Z,29.84
2023-03-28T04:33:26.474Z,31.11
2023-03-28T04:36:02.351Z,31.84
2023-03-28T04:38:37.405Z,30.64
2023-03-28T04:41:10.496Z,31.56
2023-03-28T04:43:42.643Z,30.41
2023-03-28T04:46:17.446Z,34.10
2023-03-28T04:48:49.871Z,38.24
2023-03-28T04:51:28.943Z,35.36
2023-03-28T04:54:01.059Z,34.76
2023-03-28T04:56:33.310Z,33.79
2023-03-28T04:59:05.457Z,34.91
2023-03-28T05:01:40.087Z,35.71
2023-03-28T05:04:12.215Z,35.57
2023-03-28T05:06:44.225Z,35.49
2023-03-28T05:09:16.565Z,34.39
2023-03-28T05:11:49.411Z,33.93
2023-03-28T05:14:21.548Z,36.69
2023-03-28T05:16:56.227Z,36.77
2023-03-28T05:19:28.321Z,36.31
2023-03-28T05:22:00.440Z,35.81
2023-03-28T05:24:33.725Z,35.75
2023-03-28T05:27:07.180Z,38.05
2023-03-28T05:29:39.539Z,37.56
2023-03-28T05:32:14.919Z,37.22
2023-03-28T05:34:47.017Z,36.28
2023-03-28T05:37:19.194Z,40.28
2023-03-28T05:39:51.200Z,41.05
2023-03-28T05:42:23.284Z,39.38
2023-03-28T05:44:55.484Z,42.83
2023-03-28T05:47:30.339Z,44.07
2023-03-28T05:50:03.101Z,40.79
2023-03-28T05:52:35.209Z,41.81
2023-03-28T05:55:07.823Z,42.95
2023-03-28T05:57:40.081Z,45.07
2023-03-28T06:00:14.072Z,51.12
2023-03-28T06:02:50.690Z,53.86
2023-03-28T06:05:24.101Z,49.49
2023-03-28T06:07:56.303Z,49.17
2023-03-28T06:10:28.697Z,50.79
2023-03-28T06:13:01.120Z,50.66
2023-03-28T06:15:33.354Z,50.71
2023-03-28T06:18:08.084Z,51.67
2023-03-28T06:20:40.146Z,50.91
2023-03-28T06:23:12.397Z,54.11
2023-03-28T06:25:44.607Z,50.69
2023-03-28T06:28:16.928Z,53.26
2023-03-28T06:30:52.342Z,55.52
2023-03-28T06:33:27.167Z,55.71
2023-03-28T06:35:59.590Z,55.44
2023-03-28T06:38:33.647Z,56.68
2023-03-28T06:41:05.897Z,57.34
2023-03-28T06:43:37.968Z,59.86
2023-03-28T06:46:11.026Z,60.42
2023-03-28T06:48:45.789Z,62.81
2023-03-28T06:51:17.968Z,61.69
2023-03-28T06:53:50.054Z,60.82
2023-03-28T06:56:22.266Z,62.14
2023-03-28T06:58:54.309Z,59.70
2023-03-28T07:01:26.469Z,60.02
2023-03-28T07:04:02.564Z,58.14
2023-03-28T07:06:34.953Z,54.94
2023-03-28T07:09:07.765Z,56.48
2023-03-28T07:11:39.920Z,53.95
2023-03-28T07:14:12.029Z,54.86
2023-03-28T07:16:44.281Z,52.88
2023-03-28T07:19:19.033Z,51.89
2023-03-28T07:21:51.139Z,51.56
2023-03-28T07:24:23.705Z,49.74
2023-03-28T07:27:11.830Z,50.02
2023-03-28T07:29:47.787Z,50.92
2023-03-28T07:32:20.576Z,51.93
2023-03-28T07:34:55.736Z,51.70
2023-03-28T07:37:27.813Z,53.99
2023-03-28T07:40:00.432Z,54.95
2023-03-28T07:42:32.515Z,51.84
2023-03-28T07:45:04.757Z,51.36
2023-03-28T07:47:36.822Z,51.92
2023-03-28T07:50:12.948Z,54.06
2023-03-28T07:52:45.864Z,46.88
2023-03-28T07:55:18.956Z,50.57
2023-03-28T07:57:51.062Z,46.22
2023-03-28T08:00:24.591Z,46.52
2023-03-28T08:02:56.690Z,43.41
2023-03-28T08:05:34.301Z,40.89
2023-03-28T08:08:06.699Z,41.21
2023-03-28T08:10:39.193Z,39.35
2023-03-28T08:13:11.409Z,37.94
2023-03-28T08:15:43.619Z,39.63
2023-03-28T08:18:20.970Z,40.75
2023-03-28T08:21:02.163Z,38.92
2023-03-28T08:23:34.629Z,39.56
2023-03-28T08:26:09.280Z,37.32
2023-03-28T08:28:42.533Z,35.46
2023-03-28T08:31:17.290Z,34.11
2023-03-28T08:33:51.745Z,35.66
2023-03-28T08:36:28.923Z,38.10
2023-03-28T08:39:04.788Z,35.79
2023-03-28T08:41:51.327Z,36.61
2023-03-28T08:44:48.429Z,38.47
2023-03-28T08:47:26.463Z,39.17
2023-03-28T08:50:04.389Z,39.91
2023-03-28T08:52:41.003Z,38.55
2023-03-28T08:55:32.062Z,41.64
2023-03-28T08:58:04.630Z,32.09
2023-03-28T09:00:39.673Z,35.64
2023-03-28T09:03:17.441Z,36.42
2023-03-28T09:05:56.612Z,33.40
2023-03-28T09:09:04.581Z,36.61
2023-03-28T09:11:58.545Z,36.64
2023-03-28T09:14:55.485Z,37.06
2023-03-28T09:17:41.674Z,29.91
2023-03-28T09:20:22.831Z,30.69
2023-03-28T09:23:11.509Z,35.54
2023-03-28T09:25:55.405Z,38.25
2023-03-28T09:28:41.071Z,32.31
2023-03-28T09:31:18.486Z,36.24
2023-03-28T09:33:54.424Z,31.61
2023-03-28T09:36:45.402Z,24.87
2023-03-28T09:39:30.394Z,26.51
2023-03-28T09:42:15.062Z,32.48
2023-03-28T09:44:55.184Z,30.34
2023-03-28T09:47:27.585Z,30.60
2023-03-28T09:50:11.956Z,33.58
2023-03-28T09:52:45.661Z,33.74
2023-03-28T09:58:24.969Z,11.08
2023-03-28T10:00:58.865Z,9.61
2023-03-28T10:05:06.393Z,9.32
2023-03-28T10:07:48.532Z,9.74
2023-03-28T10:10:26.421Z,9.11
2023-03-28T10:14:37.597Z,10.32
2023-03-28T10:17:11.934Z,9.99
2023-03-28T10:20:54.797Z,10.85
2023-03-28T10:23:28.646Z,9.17
2023-03-28T10:26:07.965Z,8.99
2023-03-28T10:28:43.558Z,7.18
2023-03-28T10:31:29.833Z,7.50
2023-03-28T10:34:04.233Z,8.26
2023-03-28T10:36:44.860Z,8.64
2023-03-28T10:39:27.225Z,8.67
2023-03-28T10:42:04.517Z,8.48
2023-03-28T10:44:41.008Z,8.31
2023-03-28T10:47:20.020Z,8.64
2023-03-28T10:49:56.497Z,7.08
2023-03-28T10:52:46.551Z,8.47
2023-03-28T10:56:07.103Z,7.76
2023-03-28T10:58:42.537Z,7.31
2023-03-28T11:01:21.260Z,7.24
2023-03-28T11:07:40.669Z,7.31
2023-03-28T11:10:15.708Z,7.85
2023-03-28T11:12:58.542Z,8.49
2023-03-28T11:17:16.045Z,8.41
2023-03-28T11:20:04.451Z,8.91
2023-03-28T11:24:55.920Z,7.95
2023-03-28T11:30:05.694Z,7.65
2023-03-28T11:32:46.580Z,7.77
2023-03-28T11:35:27.356Z,8.01
2023-03-28T11:38:08.221Z,7.63
2023-03-28T11:40:52.631Z,7.47
2023-03-28T11:43:35.665Z,8.23
2023-03-28T11:46:17.077Z,8.16
2023-03-28T11:51:51.933Z,8.08
2023-03-28T11:54:32.841Z,6.20
2023-03-28T11:57:16.107Z,8.25
2023-03-28T11:59:57.751Z,7.98
2023-03-28T12:02:45.492Z,8.52
2023-03-28T12:05:33.366Z,7.68
2023-03-28T12:08:16.428Z,8.06
2023-03-28T12:10:55.423Z,6.83
2023-03-28T12:13:45.502Z,6.80
2023-03-28T12:16:26.376Z,7.59
2023-03-28T12:19:02.828Z,7.36
2023-03-28T12:21:41.932Z,8.67
2023-03-28T12:24:26.320Z,6.84
2023-03-28T12:27:11.095Z,7.96
2023-03-28T12:29:57.278Z,7.06
2023-03-28T12:32:54.788Z,7.01
2023-03-28T12:35:44.563Z,7.76
2023-03-28T12:38:29.907Z,7.54
2023-03-28T12:48:09.264Z,7.26
2023-03-28T12:50:52.477Z,6.48
2023-03-28T12:53:25.014Z,8.26
2023-03-28T12:56:00.066Z,6.93
2023-03-28T12:58:40.721Z,7.66
2023-03-28T13:01:46.266Z,7.71
2023-03-28T13:04:46.989Z,7.46
2023-03-28T13:07:28.576Z,7.61
2023-03-28T13:10:11.356Z,7.11
2023-03-28T13:13:11.438Z,7.52
2023-03-28T13:16:05.989Z,7.24
2023-03-28T13:18:42.888Z,6.44
2023-03-28T13:21:15.713Z,7.32
2023-03-28T13:23:52.890Z,6.91
2023-03-28T13:26:25.774Z,7.52
2023-03-28T13:29:04.266Z,6.84
2023-03-28T13:31:46.376Z,7.61
2023-03-28T13:34:32.237Z,7.99
2023-03-28T13:37:23.522Z,7.43
2023-03-28T13:40:02.176Z,6.89
2023-03-28T13:42:36.339Z,8.10
2023-03-28T13:45:18.589Z,7.21
2023-03-28T13:48:06.227Z,6.99
2023-03-28T13:50:44.976Z,7.62
2023-03-28T13:53:17.374Z,8.39
2023-03-28T13:55:50.519Z,7.89
2023-03-28T13:58:23.713Z,7.71
2023-03-28T14:01:11.774Z,7.26
2023-03-28T14:03:50.608Z,7.36
2023-03-28T14:06:25.549Z,8.22
2023-03-28T14:09:02.743Z,6.75
2023-03-28T14:11:41.357Z,6.96
2023-03-28T14:17:15.094Z,9.23
2023-03-28T14:19:52.120Z,7.61
2023-03-28T14:22:28.694Z,7.50
2023-03-28T14:31:02.509Z,30.40
2023-03-28T14:33:40.461Z,32.84
2023-03-28T14:36:21.284Z,32.09
2023-03-28T14:38:53.487Z,31.38
2023-03-28T14:41:29.505Z,34.64
2023-03-28T14:44:04.260Z,35.92
2023-03-28T14:46:39.351Z,34.69
2023-03-28T14:49:12.071Z,36.71
2023-03-28T14:51:46.059Z,37.59
2023-03-28T14:54:20.755Z,36.46
2023-03-28T14:56:54.462Z,40.54
2023-03-28T14:59:37.215Z,38.11
2023-03-28T15:02:26.658Z,37.31
2023-03-28T15:05:07.185Z,36.53
2023-03-28T15:07:42.466Z,38.19
2023-03-28T15:10:27.447Z,37.53
2023-03-28T15:13:13.222Z,36.85
2023-03-28T15:15:49.052Z,38.19
2023-03-28T15:18:33.614Z,38.37
2023-03-28T15:21:10.781Z,38.83
2023-03-28T15:23:49.795Z,38.99
2023-03-28T15:26:28.890Z,35.66
2023-03-28T15:29:02.914Z,37.01
2023-03-28T15:31:36.046Z,38.79
2023-03-28T15:34:14.248Z,40.37
2023-03-28T15:36:54.442Z,36.36
2023-03-28T15:39:29.962Z,40.71
2023-03-28T15:42:23.724Z,42.00
2023-03-28T15:45:25.400Z,42.53
2023-03-28T15:47:58.966Z,38.04
2023-03-28T15:50:39.341Z,37.86
2023-03-28T15:53:18.567Z,37.84
2023-03-28T15:55:53.828Z,41.93
2023-03-28T15:58:26.384Z,41.57
2023-03-28T16:00:58.981Z,42.03
2023-03-28T16:03:37.420Z,39.05
2023-03-28T16:06:32.012Z,34.04
2023-03-28T16:09:21.691Z,33.63
2023-03-28T16:12:02.258Z,35.14
2023-03-28T16:14:34.882Z,33.01
2023-03-28T16:17:11.820Z,33.00
2023-03-28T16:19:45.563Z,31.24
2023-03-28T16:22:21.206Z,32.87
2023-03-28T16:24:54.895Z,33.65
2023-03-28T16:27:27.116Z,33.89
2023-03-28T16:29:59.597Z,31.83
2023-03-28T16:32:31.856Z,32.88
2023-03-28T16:35:04.831Z,35.36
2023-03-28T16:37:41.130Z,34.08
2023-03-28T16:40:14.537Z,37.13
2023-03-28T16:42:46.783Z,36.28
2023-03-28T16:45:20.724Z,36.75
2023-03-28T16:47:53.389Z,38.16
2023-03-28T16:50:25.700Z,39.80
2023-03-28T16:53:02.369Z,40.10
2023-03-28T16:55:34.880Z,41.29
2023-03-28T16:58:07.067Z,43.14
2023-03-28T17:00:39.257Z,43.52
2023-03-28T17:03:11.979Z,43.44
2023-03-28T17:05:44.514Z,44.87
2023-03-28T17:08:19.348Z,45.72
2023-03-28T17:10:52.225Z,49.09
2023-03-28T17:13:24.438Z,55.03
2023-03-28T17:15:56.916Z,55.10
2023-03-28T17:18:30.029Z,57.59
2023-03-28T17:21:03.644Z,56.39
2023-03-28T17:23:40.146Z,50.91
2023-03-28T17:26:14.344Z,49.57
2023-03-28T17:28:46.880Z,54.59
2023-03-28T17:31:21.906Z,53.79
2023-03-28T17:33:54.298Z,50.85
2023-03-28T17:36:29.928Z,62.37
2023-03-28T17:39:06.355Z,77.86
2023-03-28T17:41:39.437Z,69.04
2023-03-28T17:44:11.804Z,61.59
2023-03-28T17:46:44.740Z,67.55
2023-03-28T17:49:18.274Z,71.22
2023-03-28T17:51:51.218Z,70.85
2023-03-28T17:54:26.409Z,69.30
2023-03-28T17:56:59.337Z,63.83
2023-03-28T17:59:32.179Z,60.29
2023-03-28T18:02:05.236Z,58.22
2023-03-28T18:04:38.810Z,57.80
2023-03-28T18:07:16.142Z,62.58
2023-03-28T18:09:52.255Z,65.34
2023-03-28T18:12:24.469Z,71.02
2023-03-28T18:15:01.301Z,85.01
2023-03-28T18:17:33.886Z,92.16
2023-03-28T18:20:06.131Z,92.91
2023-03-28T18:22:38.686Z,91.83
2023-03-28T18:25:14.151Z,93.53
2023-03-28T18:27:46.386Z,101.74
2023-03-28T18:30:18.993Z,106.11
2023-03-28T18:32:51.289Z,101.16
2023-03-28T18:35:24.711Z,86.11
2023-03-28T18:37:57.021Z,72.77
2023-03-28T18:40:31.797Z,68.72
2023-03-28T18:43:04.045Z,72.79
2023-03-28T18:45:38.281Z,76.53
2023-03-28T18:48:11.675Z,79.57
2023-03-28T18:50:43.912Z,75.71
2023-03-28T18:53:16.165Z,73.91
2023-03-28T18:55:51.627Z,68.83
2023-03-28T18:58:25.359Z,56.79
2023-03-28T19:01:01.129Z,47.31
2023-03-28T19:03:38.673Z,48.39
2023-03-28T19:06:12.849Z,49.10
2023-03-28T19:08:45.498Z,47.68
2023-03-28T19:11:22.847Z,44.49
2023-03-28T19:13:55.142Z,44.82
2023-03-28T19:16:28.544Z,48.86
2023-03-28T19:19:01.101Z,47.58
2023-03-28T19:21:33.322Z,48.72
2023-03-28T19:24:05.784Z,51.44
2023-03-28T19:26:40.845Z,50.36
2023-03-28T19:29:13.156Z,51.44
2023-03-28T19:31:46.214Z,51.50
2023-03-28T19:34:21.585Z,49.90
2023-03-28T19:36:53.820Z,50.66
2023-03-28T19:39:26.024Z,51.32
2023-03-28T19:42:00.816Z,48.83
2023-03-28T19:44:33.437Z,50.65
2023-03-28T19:47:05.903Z,57.03
2023-03-28T19:49:38.819Z,58.14
2023-03-28T19:52:11.126Z,61.65
2023-03-28T19:54:43.499Z,54.16
2023-03-28T19:57:18.370Z,55.86
2023-03-28T19:59:50.747Z,53.86
2023-03-28T20:02:22.962Z,54.20
2023-03-28T20:04:55.906Z,67.85
2023-03-28T20:07:28.165Z,63.53
2023-03-28T20:10:00.509Z,76.59
2023-03-28T20:12:39.847Z,79.55
2023-03-28T20:15:13.951Z,87.45
2023-03-28T20:17:46.456Z,79.27
2023-03-28T20:20:19.708Z,77.59
2023-03-28T20:22:51.936Z,72.28
2023-03-28T20:25:24.652Z,67.74
2023-03-28T20:27:59.509Z,61.50
2023-03-28T20:30:31.842Z,56.41
2023-03-28T20:33:04.328Z,56.68
2023-03-28T20:35:37.414Z,55.05
2023-03-28T20:38:09.680Z,55.16
2023-03-28T20:40:43.710Z,53.60
2023-03-28T20:43:20.572Z,50.12
2023-03-28T20:45:54.153Z,50.54
2023-03-28T20:48:34.663Z,51.56
2023-03-28T20:51:14.152Z,54.95
2023-03-28T20:53:49.637Z,51.16
2023-03-28T20:56:23.764Z,59.10
2023-03-28T20:58:59.297Z,57.22
2023-03-28T21:01:33.772Z,58.56
2023-03-28T21:04:07.300Z,49.94
2023-03-28T21:06:43.509Z,47.23
2023-03-28T21:09:18.379Z,46.34
2023-03-28T21:11:50.642Z,45.32
2023-03-28T21:14:25.638Z,43.69
2023-03-28T21:16:58.388Z,43.51
2023-03-28T21:19:31.193Z,42.96
2023-03-28T21:22:03.851Z,44.99
2023-03-28T21:24:36.254Z,45.67
2023-03-28T21:27:08.462Z,45.06
2023-03-28T21:29:43.325Z,45.99
2023-03-28T21:32:16.455Z,42.87
2023-03-28T21:34:51.366Z,41.29
2023-03-28T21:37:23.556Z,41.34
2023-03-28T21:39:55.761Z,42.66
2023-03-28T21:42:28.095Z,41.16
2023-03-28T21:45:03.083Z,38.04
2023-03-28T21:47:38.381Z,34.50
2023-03-28T21:50:14.838Z,35.51
2023-03-28T21:52:47.286Z,35.65
2023-03-28T21:55:19.987Z,32.88
2023-03-28T21:57:52.204Z,34.82
2023-03-28T22:00:28.610Z,34.79
2023-03-28T22:03:01.349Z,35.15
2023-03-28T22:05:33.796Z,36.05
2023-03-28T22:08:06.034Z,34.41
2023-03-28T22:10:38.652Z,35.99
2023-03-28T22:13:11.231Z,34.74
2023-03-28T22:15:46.321Z,33.16
2023-03-28T22:18:19.535Z,34.70
2023-03-28T22:20:55.741Z,34.54
2023-03-28T22:23:28.500Z,32.77
2023-03-28T22:26:03.726Z,33.00
2023-03-28T22:28:36.862Z,36.25
2023-03-28T22:31:12.683Z,33.86
2023-03-28T22:33:44.903Z,33.31
2023-03-28T22:36:17.513Z,32.84
2023-03-28T22:38:50.368Z,34.66
2023-03-28T22:41:23.910Z,35.39
2023-03-28T22:43:56.141Z,33.26
2023-03-28T22:46:32.925Z,33.96
2023-03-28T22:49:05.187Z,34.44
2023-03-28T22:51:44.084Z,34.54
2023-03-28T22:54:21.184Z,33.36
2023-03-28T22:56:53.563Z,32.36
2023-03-28T22:59:26.047Z,33.79
2023-03-28T23:02:00.872Z,30.24
2023-03-28T23:04:33.461Z,31.21
2023-03-28T23:07:06.747Z,32.22
2023-03-28T23:09:39.465Z,33.75
2023-03-28T23:12:12.159Z,31.80
2023-03-28T23:14:45.774Z,31.66
2023-03-28T23:17:21.634Z,32.61
2023-03-28T23:19:54.430Z,34.27
2023-03-28T23:22:26.725Z,32.19
2023-03-28T23:24:59.156Z,32.36
2023-03-28T23:27:31.374Z,33.06
2023-03-28T23:30:03.596Z,32.51
2023-03-28T23:32:38.769Z,31.54
2023-03-28T23:35:12.960Z,31.46
2023-03-28T23:37:45.285Z,31.22
2023-03-28T23:40:18.704Z,31.22
2023-03-28T23:42:51.330Z,31.03
2023-03-28T23:45:23.667Z,33.01
2023-03-28T23:47:58.471Z,31.16
2023-03-28T23:50:31.870Z,33.07
2023-03-28T23:53:04.707Z,32.19
2023-03-28T23:55:37.470Z,31.99
2023-03-28T23:58:09.707Z,32.56
